Latest Weather Observations for Ulladulla

IDN60901

Issued at 12:01 pm EST Monday 27 June 2016 (issued every 10 minutes, with the page automatically refreshed every 10 minutes)

About weather observations | Map of Canberra area stations | Latest observations for Canberra area | Other Formats
Station Details ID: 069138 Name: ULLADULLA AWS Lat: -35.36 Lon: 150.48 Height: 35.7 m
Data from the previous 72 hours. | See also: Recent months at Ulladulla
Date/Time
EST
Temp
°C
App
Temp
°C
Dew
Point
°C
Rel
Hum
%
Delta-T
°C
Wind Press
QNH
hPa
Press
MSL
hPa
Rain since
9am
mm
Dir  Spd
km/h
Gust
km/h
Spd
kts
Gust
kts
27/12:00pm 11.5 7.9 5.2 65 2.9 WSW 13 20 7 11 1013.5 1013.5 0.0
27/11:30am 11.4 8.1 4.4 62 3.2 WSW 11 17 6 9 1014.0 1014.0 0.0
27/11:00am 11.1 8.2 4.6 64 2.9 WSW 9 15 5 8 1014.2 1014.2 0.0
27/10:30am 10.7 8.1 4.2 64 2.9 W 7 13 4 7 1014.4 1014.4 0.0
27/10:00am 10.3 7.7 4.0 65 2.8 W 7 13 4 7 1014.5 1014.5 0.0
27/09:30am 10.2 7.5 3.5 63 2.9 WNW 7 13 4 7 1014.7 1014.7 0.0
27/09:00am 10.1 7.3 3.2 62 3.0 WNW 7 13 4 7 1014.7 1014.7 0.0
27/08:30am 9.9 7.1 3.2 63 2.9 W 7 13 4 7 1014.4 1014.4 0.0
27/08:00am 9.7 6.8 2.8 62 3.0 W 7 11 4 6 1014.2 1014.2 0.0
27/07:30am 9.8 7.0 2.9 62 3.0 WNW 7 13 4 7 1014.0 1014.0 0.0
27/07:00am 9.7 7.0 2.8 62 3.0 W 6 9 3 5 1013.8 1013.8 0.0
27/06:30am 10.1 7.2 2.7 60 3.2 WNW 7 13 4 7 1013.8 1013.8 0.0
27/06:00am 10.2 7.5 2.8 60 3.2 WNW 6 11 3 6 1013.7 1013.7 0.0
27/05:30am 10.2 7.4 3.0 61 3.1 WNW 7 11 4 6 1013.5 1013.5 0.0
27/05:00am 10.0 7.2 3.3 63 2.9 WNW 7 15 4 8 1013.3 1013.3 0.0
27/04:30am 9.9 7.4 3.6 65 2.8 WNW 6 9 3 5 1013.1 1013.1 0.0
27/04:00am 9.9 7.4 3.9 66 2.6 NW 6 9 3 5 1013.3 1013.3 0.0
27/03:30am 9.9 7.5 4.1 67 2.6 NW 6 9 3 5 1013.6 1013.6 0.0
27/03:00am 9.5 7.4 3.9 68 2.5 NW 4 9 2 5 1013.9 1013.9 0.0
27/02:30am 9.5 7.5 4.3 70 2.3 WNW 4 7 2 4 1014.2 1014.2 0.0
27/02:00am 9.9 7.9 4.3 68 2.5 WNW 4 7 2 4 1014.7 1014.7 0.0
27/01:30am 10.3 7.9 4.5 67 2.6 WNW 6 7 3 4 1014.6 1014.6 0.0
27/01:00am 10.3 8.3 4.5 67 2.6 NW 4 4 2 2 1014.5 1014.5 0.0
27/12:30am 10.8 8.4 4.5 65 2.8 NNW 6 7 3 4 1014.7 1014.7 0.0
27/12:00am 10.7 8.4 4.8 67 2.7 NW 6 6 3 3 1014.7 1014.7 0.0
 
Date/Time
EST
Temp
°C
App
Temp
°C
Dew
Point
°C
Rel
Hum
%
Delta-T
°C
Wind Press
QNH
hPa
Press
MSL
hPa
Rain since
9am
mm
Dir  Spd
km/h
Gust
km/h
Spd
kts
Gust
kts
26/11:30pm 10.5 8.6 4.9 68 2.5 WNW 4 6 2 3 1014.8 1014.8 0.0
26/11:00pm 10.6 8.8 5.2 69 2.5 NW 4 6 2 3 1015.0 1015.0 0.0
26/10:30pm 10.6 8.4 5.2 69 2.5 NW 6 9 3 5 1015.5 1015.5 0.0
26/10:00pm 11.0 8.8 5.1 67 2.7 NW 6 7 3 4 1015.8 1015.8 0.0
26/09:30pm 11.1 8.7 4.1 62 3.1 NW 6 9 3 5 1016.0 1016.0 0.0
26/09:00pm 10.8 8.3 4.0 63 3.0 NW 6 7 3 4 1016.2 1016.2 0.0
26/08:30pm 10.9 8.5 4.1 63 3.0 NW 6 9 3 5 1016.6 1016.6 0.0
26/08:00pm 11.4 8.9 4.6 63 3.1 NW 7 9 4 5 1016.8 1016.8 0.0
26/07:30pm 11.1 8.6 4.8 65 2.9 NW 7 9 4 5 1016.7 1016.7 0.0
26/07:00pm 10.9 8.5 5.2 68 2.6 NW 7 9 4 5 1016.7 1016.7 0.0
26/06:30pm 10.5 8.7 5.5 71 2.3 WNW 4 6 2 3 1016.7 1016.7 0.0
26/06:00pm 10.7 9.0 5.7 71 2.3 WNW 4 6 2 3 1016.4 1016.4 0.0
26/05:30pm 10.6 8.4 5.2 69 2.5 W 6 7 3 4 1016.0 1016.0 0.0
26/05:00pm 11.1 9.3 5.4 68 2.6 W 4 4 2 2 1016.2 1016.2 0.0
26/04:30pm 12.0 10.2 5.6 65 3.0 WNW 4 4 2 2 1016.4 1016.4 0.0
26/04:00pm 13.4 12.4 5.6 59 3.7 CALM 0 0 0 0 1016.3 1016.3 0.0
26/03:30pm 13.9 12.6 5.8 58 3.8 WSW 2 4 1 2 1016.3 1016.3 0.0
26/03:00pm 13.8 12.1 5.9 59 3.7 WSW 4 7 2 4 1016.9 1016.9 0.0
26/02:30pm 13.6 11.4 5.3 57 3.9 SW 6 9 3 5 1016.9 1016.9 0.0
26/02:00pm 13.9 11.4 4.8 54 4.2 SW 7 9 4 5 1017.2 1017.2 0.0
26/01:30pm 14.3 12.2 5.7 56 4.1 SSW 6 9 3 5 1017.3 1017.3 0.0
26/01:00pm 14.1 11.4 5.7 57 4.0 SSW 9 15 5 8 1017.5 1017.5 0.0
26/12:30pm 14.1 10.9 5.2 55 4.2 SSW 11 17 6 9 1017.7 1017.7 0.0
26/12:00pm 14.5 11.2 4.5 51 4.6 SSW 11 19 6 10 1018.5 1018.5 0.0
26/11:30am 14.4 11.6 5.0 53 4.4 SSW 9 15 5 8 1019.1 1019.1 0.0
26/11:00am 14.2 10.8 4.2 51 4.6 WSW 11 15 6 8 1019.5 1019.5 0.0
26/10:30am 14.4 11.8 4.4 51 4.6 WSW 7 17 4 9 1019.9 1019.9 0.0
26/10:00am 14.0 11.0 4.0 51 4.6 WSW 9 15 5 8 1020.1 1020.1 0.0
26/09:30am 13.6 10.6 3.9 52 4.4 W 9 15 5 8 1020.3 1020.3 0.0
26/09:00am 11.9 9.3 4.2 59 3.5 W 7 11 4 6 1020.1 1020.1 0.0
26/08:30am 11.1 8.0 3.4 59 3.4 W 9 13 5 7 1019.9 1019.9 0.0
26/08:00am 10.3 7.5 3.1 61 3.1 W 7 13 4 7 1019.9 1019.9 0.0
26/07:30am 9.0 5.7 2.6 64 2.7 W 9 13 5 7 1019.9 1019.9 0.0
26/07:00am 8.6 5.7 2.4 65 2.6 W 7 13 4 7 1019.7 1019.7 0.0
26/06:30am 8.4 5.0 2.0 64 2.7 W 9 15 5 8 1019.5 1019.5 0.0
26/06:00am 8.6 5.2 2.0 63 2.7 W 9 13 5 7 1019.1 1019.1 0.0
26/05:30am 8.2 4.8 1.8 64 2.6 W 9 15 5 8 1019.1 1019.1 0.0
26/05:00am 8.2 4.8 1.6 63 2.7 W 9 17 5 9 1018.8 1018.8 0.0
26/04:30am 7.9 4.0 1.3 63 2.7 W 11 19 6 10 1018.8 1018.8 0.0
26/04:00am 8.1 4.2 1.3 62 2.8 WSW 11 20 6 11 1018.6 1018.6 0.0
26/03:30am 7.8 4.3 1.2 63 2.7 W 9 19 5 10 1018.8 1018.8 0.0
26/03:00am 7.7 4.1 0.9 62 2.7 W 9 15 5 8 1019.1 1019.1 0.0
26/02:30am 8.1 4.9 1.0 61 2.9 W 7 15 4 8 1019.7 1019.7 0.0
26/02:00am 8.7 5.2 1.1 59 3.1 W 9 17 5 9 1019.7 1019.7 0.0
26/01:30am 8.1 4.9 0.6 59 3.0 W 7 15 4 8 1019.7 1019.7 0.0
26/01:00am 7.9 4.6 0.4 59 3.0 W 7 15 4 8 1019.6 1019.6 0.0
26/12:30am 7.4 3.7 0.2 60 2.8 W 9 15 5 8 1019.6 1019.6 0.0
26/12:00am 7.3 3.7 0.3 61 2.7 W 9 17 5 9 1019.7 1019.7 0.0
 
Date/Time
EST
Temp
°C
App
Temp
°C
Dew
Point
°C
Rel
Hum
%
Delta-T
°C
Wind Press
QNH
hPa
Press
MSL
hPa
Rain since
9am
mm
Dir  Spd
km/h
Gust
km/h
Spd
kts
Gust
kts
25/11:30pm 6.8 3.1 0.0 62 2.6 W 9 11 5 6 1019.8 1019.8 0.0
25/11:00pm 6.9 3.2 -0.1 61 2.7 W 9 13 5 7 1020.2 1020.2 0.0
25/10:30pm 7.0 3.3 0.2 62 2.7 WSW 9 13 5 7 1020.2 1020.2 0.0
25/10:00pm 6.7 3.7 0.6 65 2.4 WNW 6 9 3 5 1020.2 1020.2 0.0
25/09:30pm 7.4 3.7 -0.1 59 2.9 WSW 9 13 5 7 1020.2 1020.2 0.0
25/09:00pm 8.6 4.1 -0.2 54 3.5 SW 13 22 7 12 1020.2 1020.2 0.0
25/08:30pm 8.7 4.6 -0.3 53 3.5 SW 11 17 6 9 1020.1 1020.1 0.0
25/08:00pm 8.7 4.7 0.2 55 3.4 SW 11 15 6 8 1020.1 1020.1 0.0
25/07:30pm 8.0 4.7 -0.2 56 3.2 WSW 7 11 4 6 1020.1 1020.1 0.0
25/07:00pm 8.7 5.0 0.2 55 3.4 SW 9 13 5 7 1020.0 1020.0 0.0
25/06:30pm 8.3 5.0 0.3 57 3.2 WSW 7 9 4 5 1019.6 1019.6 0.0
25/06:00pm 8.9 5.6 0.1 54 3.5 SW 7 11 4 6 1019.3 1019.3 0.0
25/05:30pm 10.4 6.7 -0.1 48 4.2 SW 9 15 5 8 1019.0 1019.0 0.0
25/05:00pm 10.7 7.0 -0.1 47 4.4 SW 9 15 5 8 1018.9 1018.9 0.0
25/04:30pm 11.6 7.5 -0.2 44 4.8 SW 11 19 6 10 1018.5 1018.5 0.0
25/04:00pm 12.4 8.4 0.2 43 5.0 SW 11 19 6 10 1018.3 1018.3 0.0
25/03:30pm 12.9 8.1 0.3 42 5.3 SSW 15 24 8 13 1018.1 1018.1 0.0
25/03:00pm 13.1 7.4 -0.9 38 5.7 SSW 19 28 10 15 1017.8 1017.8 0.0
25/02:30pm 13.3 7.7 -0.3 39 5.6 SSW 19 26 10 14 1017.6 1017.6 0.0
25/02:00pm 13.1 7.1 -1.6 36 5.9 SSW 20 33 11 18 1017.4 1017.4 0.0
25/01:30pm 13.2 7.4 -1.2 37 5.8 SSW 19 28 10 15 1017.4 1017.4 0.0
25/01:00pm 13.2 7.5 -0.4 39 5.6 SSW 19 28 10 15 1017.7 1017.7 0.0
25/12:30pm 13.1 8.2 -0.2 40 5.5 SSW 15 28 8 15 1017.8 1017.8 0.0
25/12:00pm 12.9 8.0 -0.4 40 5.4 SW 15 24 8 13 1017.9 1017.9 0.0
25/11:30am 12.4 7.1 -0.5 41 5.3 SSW 17 24 9 13 1018.1 1018.1 0.0
25/11:00am 11.8 6.9 -0.7 42 5.0 SW 15 22 8 12 1018.3 1018.3 0.0
25/10:30am 11.7 6.9 -0.1 44 4.8 WSW 15 28 8 15 1018.2 1018.2 0.0
25/10:00am 10.7 6.0 -1.7 42 4.8 SW 13 22 7 12 1018.1 1018.1 0.0
25/09:30am 10.1 5.3 -2.2 42 4.7 WSW 13 24 7 13 1017.8 1017.8 0.0
25/09:00am 9.6 5.3 -2.0 44 4.4 W 11 20 6 11 1017.4 1017.4 0.0
25/08:30am 8.8 4.8 -1.9 47 4.1 W 9 17 5 9 1017.2 1017.2 0.0
25/08:00am 7.6 3.6 -2.1 50 3.6 W 9 17 5 9 1016.9 1016.9 0.0
25/07:30am 7.0 2.6 -2.2 52 3.4 WSW 11 20 6 11 1016.5 1016.5 0.0
25/07:00am 6.8 2.0 -2.4 52 3.4 WSW 13 26 7 14 1016.0 1016.0 0.0
25/06:30am 6.3 2.0 -1.8 56 3.0 WSW 11 20 6 11 1015.7 1015.7 0.0
25/06:00am 6.5 2.6 -1.6 56 3.0 W 9 19 5 10 1015.3 1015.3 0.0
25/05:30am 6.6 2.3 -1.5 56 3.0 W 11 20 6 11 1015.1 1015.1 0.0
25/05:00am 6.5 2.3 -1.2 58 2.9 W 11 20 6 11 1014.5 1014.5 0.0
25/04:30am 6.6 2.8 -1.1 58 2.9 W 9 20 5 11 1014.1 1014.1 0.0
25/04:00am 6.8 2.6 -1.1 57 3.0 W 11 20 6 11 1013.8 1013.8 0.0
25/03:30am 7.1 2.9 -1.1 56 3.1 W 11 26 6 14 1013.4 1013.4 0.0
25/03:00am 7.2 3.4 -1.0 56 3.1 W 9 20 5 11 1013.1 1013.1 0.0
25/02:30am 7.5 3.3 -0.9 55 3.2 W 11 24 6 13 1012.7 1012.7 0.0
25/02:00am 7.8 2.9 -0.7 55 3.3 W 15 28 8 15 1012.4 1012.4 0.0
25/01:30am 8.1 2.8 -0.9 53 3.5 W 17 33 9 18 1011.8 1011.8 0.0
25/01:00am 8.1 3.5 -0.9 53 3.5 W 13 30 7 16 1011.2 1011.2 0.0
25/12:30am 8.1 3.6 -0.6 54 3.4 WNW 13 24 7 13 1011.0 1011.0 0.0
25/12:00am 7.9 4.1 -0.8 54 3.4 WNW 9 15 5 8 1011.0 1011.0 0.0
 
Date/Time
EST
Temp
°C
App
Temp
°C
Dew
Point
°C
Rel
Hum
%
Delta-T
°C
Wind Press
QNH
hPa
Press
MSL
hPa
Rain since
9am
mm
Dir  Spd
km/h
Gust
km/h
Spd
kts
Gust
kts
24/11:30pm 8.2 4.1 -0.5 54 3.4 W 11 24 6 13 1010.6 1010.6 0.0
24/11:00pm 8.3 4.2 -0.2 55 3.3 WNW 11 20 6 11 1010.1 1010.1 0.0
24/10:30pm 8.4 4.0 0.1 56 3.3 WNW 13 24 7 13 1009.9 1009.9 0.0
24/10:00pm 8.4 4.7 0.1 56 3.3 WNW 9 17 5 9 1009.7 1009.7 0.0
24/09:30pm 8.6 4.5 0.1 55 3.4 WNW 11 17 6 9 1009.4 1009.4 0.0
24/09:00pm 8.7 4.7 0.2 55 3.4 W 11 30 6 16 1008.9 1008.9 0.0
24/08:30pm 8.8 4.0 0.0 54 3.5 W 15 32 8 17 1008.4 1008.4 0.0
24/08:00pm 9.1 4.3 0.3 54 3.5 W 15 37 8 20 1007.6 1007.6 0.0
24/07:30pm 9.4 3.9 0.6 54 3.6 WNW 19 32 10 17 1006.7 1006.7 0.0
24/07:00pm 9.6 3.9 0.8 54 3.6 W 20 39 11 21 1005.7 1005.7 0.0
24/06:30pm 9.8 5.1 0.9 54 3.6 WNW 15 30 8 16 1005.2 1005.2 0.0
24/06:00pm 10.0 4.4 1.1 54 3.7 WNW 20 37 11 20 1004.3 1004.3 0.0
24/05:30pm 10.3 5.3 1.2 53 3.8 WNW 17 30 9 16 1003.9 1003.9 0.0
24/05:00pm 10.9 5.2 0.6 49 4.3 WNW 20 37 11 20 1003.5 1003.5 0.0
24/04:30pm 11.7 6.1 0.2 45 4.7 WNW 19 35 10 19 1002.8 1002.8 0.0
24/04:00pm 12.3 6.5 0.1 43 5.1 WNW 20 39 11 21 1002.5 1002.5 0.0
24/03:30pm 12.8 8.0 -0.1 41 5.3 WNW 15 30 8 16 1002.2 1002.2 0.0
24/03:00pm 14.1 9.3 0.0 38 5.9 W 15 33 8 18 1002.3 1002.3 0.0
24/02:30pm 14.2 10.1 -0.3 37 6.0 W 11 26 6 14 1001.7 1001.7 0.0
24/02:00pm 14.5 10.9 0.4 38 6.0 WNW 9 17 5 9 1001.5 1001.5 0.0
24/01:30pm 14.9 11.4 1.4 40 5.9 W 9 22 5 12 1001.3 1001.2 0.0
24/01:00pm 14.2 8.8 1.2 41 5.6 WNW 19 50 10 27 1001.4 1001.3 0.0
24/12:30pm 15.0 11.5 3.5 46 5.2 WNW 11 22 6 12 1001.3 1001.2 0.0

Latest Capital City Observations: Canberra | Sydney | Melbourne | Brisbane | Adelaide | Perth | Hobart | Darwin

Other Formats:

Comma delimited format used in spreadsheet applications
http://www.bom.gov.au/fwo/IDN60903/IDN60903.94938.axf

JavaScript Object Notation format (JSON) in row-major order
http://www.bom.gov.au/fwo/IDN60903/IDN60903.94938.json